Vibrant Curiosity — 2BQE2 — position and weather

sailwx.info

Track history (hours):
 
Tides and Currents Weather Stations Pressure Air Temp Water Temp Dewpoint Dewpoint Depression Visibility Wind Speed Wind Dir Waves Ship Positions

Vibrant Curiosity

Last reported at 2014-Jul-23 02:33 UTC. Time now 2014-Jul-24 17:46 UTC.
Position N 37°15' E 026°33'.

Length 85 m; draft 4 m.

Type: Pleasure craft. MMSI: 235068366.

Date/timePositionNaut miles runAvg speedWind from/ knotsBaromVisibWave heightAir tempDewpointWater temp
2014-Jul-23 02:33N 37°15' E 026°33'1312.8
2014-Jul-23 01:33N 37°17' E 026°17'1413.8
2014-Jul-23 00:33N 37°19' E 025°60'1414.3
2014-Jul-22 23:33N 37°21' E 025°42'1414.4
2014-Jul-22 22:33N 37°23' E 025°24'4 3.9
2014-Jul-22 21:33N 37°25' E 025°20'0 0.0
2014-Jul-22 20:30N 37°25' E 025°20'0 0.0
2014-Jul-22 19:32N 37°25' E 025°20'0 0.0
2014-Jul-22 18:30N 37°25' E 025°20'0 0.0
2014-Jul-22 17:32N 37°25' E 025°20'0 0.0
2014-Jul-22 16:30N 37°25' E 025°20'4 4.7
2014-Jul-22 15:34N 37°22' E 025°16'1 1.3
2014-Jul-22 14:33N 37°23' E 025°16'0 0.0
2014-Jul-22 13:29N 37°23' E 025°16'0 0.0
2014-Jul-22 12:33N 37°23' E 025°16'0 0.0
2014-Jul-22 11:33N 37°23' E 025°16'0 0.0
2014-Jul-22 10:29N 37°23' E 025°16'0 0.0
2014-Jul-22 09:33N 37°23' E 025°16'0 0.0
2014-Jul-22 08:33N 37°23' E 025°16'0 0.0
2014-Jul-22 07:33N 37°23' E 025°16'1 1.5
2014-Jul-22 06:33N 37°22' E 025°16'4 3.6
2014-Jul-22 05:32N 37°24' E 025°20'0 0.0
2014-Jul-22 04:32N 37°24' E 025°20'0 0.0
2014-Jul-22 03:32N 37°24' E 025°20'0 0.0
2014-Jul-22 02:32N 37°24' E 025°20'0 0.0
2014-Jul-22 01:32N 37°24' E 025°20'0 0.0
2014-Jul-22 00:32N 37°24' E 025°20'0 0.0
2014-Jul-21 23:32N 37°24' E 025°20'0 0.0
2014-Jul-21 22:32N 37°24' E 025°20'0 0.0
2014-Jul-21 21:32N 37°24' E 025°20'0 0.1
2014-Jul-21 20:30N 37°24' E 025°19'0 0.0
2014-Jul-21 20:14N 37°24' E 025°19'0 0.0
2014-Jul-21 19:32N 37°24' E 025°19'0 0.0
2014-Jul-21 18:32N 37°24' E 025°19'0 0.0
2014-Jul-21 17:32N 37°24' E 025°19'0 0.0
2014-Jul-21 16:30N 37°24' E 025°19'0 0.0
2014-Jul-21 15:33N 37°24' E 025°19'0 0.0
2014-Jul-21 14:33N 37°24' E 025°19'0 0.0
2014-Jul-21 13:32N 37°24' E 025°19'0 0.0
2014-Jul-21 12:33N 37°24' E 025°20'0 0.0
2014-Jul-21 11:33N 37°24' E 025°19'0 0.0
2014-Jul-21 10:30N 37°24' E 025°20'0 0.0
2014-Jul-21 09:33N 37°24' E 025°20'0 0.0
2014-Jul-21 08:24N 37°24' E 025°20'0 0.0
2014-Jul-21 07:33N 37°24' E 025°19'0 0.0
2014-Jul-21 06:33N 37°24' E 025°20'0 0.0
2014-Jul-21 05:27N 37°24' E 025°19'0 0.0
2014-Jul-21 04:33N 37°24' E 025°19'0 0.0
2014-Jul-21 03:33N 37°24' E 025°19'0 0.0
2014-Jul-21 02:21N 37°24' E 025°19'0 0.0
2014-Jul-21 01:33N 37°24' E 025°19'0 0.0
2014-Jul-21 00:33N 37°24' E 025°19'0 0.0
2014-Jul-20 23:33N 37°24' E 025°19'0 0.0
2014-Jul-20 22:33N 37°24' E 025°19'0 0.0
2014-Jul-20 21:33N 37°24' E 025°19'0 0.0
2014-Jul-20 20:33N 37°24' E 025°19'0 0.0
2014-Jul-20 19:33N 37°24' E 025°19'0 0.0
2014-Jul-20 18:33N 37°24' E 025°19'0 0.0
2014-Jul-20 17:33N 37°24' E 025°19'0 0.0
2014-Jul-20 16:27N 37°24' E 025°19'0 0.0
2014-Jul-20 15:33N 37°24' E 025°19'0 0.0
2014-Jul-20 14:33N 37°24' E 025°20'0 0.0
2014-Jul-20 13:33N 37°24' E 025°20'0 0.0
2014-Jul-20 12:33N 37°24' E 025°19'0 0.0
2014-Jul-20 11:33N 37°24' E 025°19'0 0.0
2014-Jul-20 10:27N 37°24' E 025°20'0 0.0
2014-Jul-20 09:33N 37°24' E 025°20'0 0.0
2014-Jul-20 08:33N 37°24' E 025°19'0 0.0
2014-Jul-20 07:27N 37°24' E 025°19'0 0.0
2014-Jul-20 06:27N 37°24' E 025°19'0 0.0
2014-Jul-20 05:32N 37°24' E 025°20'1 0.9
2014-Jul-20 04:33N 37°23' E 025°19'1312.7
2014-Jul-20 03:33N 37°18' E 025°05'1413.5
2014-Jul-20 02:31N 37°15' E 024°48'1313.7
2014-Jul-20 01:33N 37°14' E 024°31'1413.6
2014-Jul-20 00:30N 37°15' E 024°13'3013.4
2014-Jul-19 22:18N 37°13' E 023°36'1513.3
2014-Jul-19 21:08N 37°12' E 023°17'5 0.3
2014-Jul-19 03:09N 37°17' E 023°14'913.9
2014-Jul-19 02:28N 37°21' E 023°25'3 3.0
2014-Jul-19 01:32N 37°21' E 023°29'0 0.0
2014-Jul-19 00:30N 37°21' E 023°29'0 0.0
2014-Jul-18 23:33N 37°21' E 023°29'0 0.0
2014-Jul-18 22:15N 37°21' E 023°29'0 0.0
2014-Jul-18 21:33N 37°22' E 023°29'0 0.0
2014-Jul-18 20:27N 37°22' E 023°29'0 0.0
2014-Jul-18 19:21N 37°21' E 023°29'  
2014-Jul-15 10:13N 38°02' E 015°34'1013.9
2014-Jul-15 09:32N 38°12' E 015°35'9 9.2
2014-Jul-15 08:33N 38°20' E 015°30'1514.4
2014-Jul-15 07:32N 38°25' E 015°13'12714.1
2014-Jul-14 22:32N 40°26' E 014°24'9 2.8
2014-Jul-14 19:33N 40°35' E 014°21'0 0.0
2014-Jul-14 18:33N 40°35' E 014°21'4 3.9
2014-Jul-14 17:33N 40°37' E 014°17'10 4.8
2014-Jul-14 15:25N 40°43' E 014°28'0 0.0
2014-Jul-14 14:13N 40°43' E 014°28'0 0.0
2014-Jul-14 13:25N 40°43' E 014°28'0 0.0
2014-Jul-14 12:31N 40°43' E 014°28'0 0.0
2014-Jul-14 11:31N 40°43' E 014°28'0 0.0
2014-Jul-14 10:28N 40°43' E 014°28'0 0.0
2014-Jul-14 09:25N 40°43' E 014°28'0 0.0
2014-Jul-14 08:31N 40°43' E 014°28'0 0.0
2014-Jul-14 07:28N 40°43' E 014°28'0 0.0
2014-Jul-14 06:16N 40°43' E 014°28'3 4.7
2014-Jul-14 05:33N 40°41' E 014°24'7 7.0
2014-Jul-14 04:33N 40°34' E 014°24'5 0.7
2014-Jul-13 20:29N 40°37' E 014°30'5 0.6
2014-Jul-13 11:26N 40°34' E 014°24'  
Track history (hours):
 
Tides and Currents Weather Stations Pressure Air Temp Water Temp Dewpoint Dewpoint Depression Visibility Wind Speed Wind Dir Waves Ship Positions

Vibrant Curiosity

Last reported at 2014-Jul-23 02:33 UTC. Time now 2014-Jul-24 17:46 UTC.
Position N 37°15' E 026°33'.

Length 85 m; draft 4 m.

Type: Pleasure craft. MMSI: 235068366.

Date/timePositionNaut miles runAvg speedWind from/ knotsBaromVisibWave heightAir tempDewpointWater temp
2014-Jul-23 02:33N 37°15' E 026°33'1312.8
2014-Jul-23 01:33N 37°17' E 026°17'1413.8
2014-Jul-23 00:33N 37°19' E 025°60'1414.3
2014-Jul-22 23:33N 37°21' E 025°42'1414.4
2014-Jul-22 22:33N 37°23' E 025°24'4 3.9
2014-Jul-22 21:33N 37°25' E 025°20'0 0.0
2014-Jul-22 20:30N 37°25' E 025°20'0 0.0
2014-Jul-22 19:32N 37°25' E 025°20'0 0.0
2014-Jul-22 18:30N 37°25' E 025°20'0 0.0
2014-Jul-22 17:32N 37°25' E 025°20'0 0.0
2014-Jul-22 16:30N 37°25' E 025°20'4 4.7
2014-Jul-22 15:34N 37°22' E 025°16'1 1.3
2014-Jul-22 14:33N 37°23' E 025°16'0 0.0
2014-Jul-22 13:29N 37°23' E 025°16'0 0.0
2014-Jul-22 12:33N 37°23' E 025°16'0 0.0
2014-Jul-22 11:33N 37°23' E 025°16'0 0.0
2014-Jul-22 10:29N 37°23' E 025°16'0 0.0
2014-Jul-22 09:33N 37°23' E 025°16'0 0.0
2014-Jul-22 08:33N 37°23' E 025°16'0 0.0
2014-Jul-22 07:33N 37°23' E 025°16'1 1.5
2014-Jul-22 06:33N 37°22' E 025°16'4 3.6
2014-Jul-22 05:32N 37°24' E 025°20'0 0.0
2014-Jul-22 04:32N 37°24' E 025°20'0 0.0
2014-Jul-22 03:32N 37°24' E 025°20'0 0.0
2014-Jul-22 02:32N 37°24' E 025°20'0 0.0
2014-Jul-22 01:32N 37°24' E 025°20'0 0.0
2014-Jul-22 00:32N 37°24' E 025°20'0 0.0
2014-Jul-21 23:32N 37°24' E 025°20'0 0.0
2014-Jul-21 22:32N 37°24' E 025°20'0 0.0
2014-Jul-21 21:32N 37°24' E 025°20'0 0.1
2014-Jul-21 20:30N 37°24' E 025°19'0 0.0
2014-Jul-21 20:14N 37°24' E 025°19'0 0.0
2014-Jul-21 19:32N 37°24' E 025°19'0 0.0
2014-Jul-21 18:32N 37°24' E 025°19'0 0.0
2014-Jul-21 17:32N 37°24' E 025°19'0 0.0
2014-Jul-21 16:30N 37°24' E 025°19'0 0.0
2014-Jul-21 15:33N 37°24' E 025°19'0 0.0
2014-Jul-21 14:33N 37°24' E 025°19'0 0.0
2014-Jul-21 13:32N 37°24' E 025°19'0 0.0
2014-Jul-21 12:33N 37°24' E 025°20'0 0.0
2014-Jul-21 11:33N 37°24' E 025°19'0 0.0
2014-Jul-21 10:30N 37°24' E 025°20'0 0.0
2014-Jul-21 09:33N 37°24' E 025°20'0 0.0
2014-Jul-21 08:24N 37°24' E 025°20'0 0.0
2014-Jul-21 07:33N 37°24' E 025°19'0 0.0
2014-Jul-21 06:33N 37°24' E 025°20'0 0.0
2014-Jul-21 05:27N 37°24' E 025°19'0 0.0
2014-Jul-21 04:33N 37°24' E 025°19'0 0.0
2014-Jul-21 03:33N 37°24' E 025°19'0 0.0
2014-Jul-21 02:21N 37°24' E 025°19'0 0.0
2014-Jul-21 01:33N 37°24' E 025°19'0 0.0
2014-Jul-21 00:33N 37°24' E 025°19'0 0.0
2014-Jul-20 23:33N 37°24' E 025°19'0 0.0
2014-Jul-20 22:33N 37°24' E 025°19'0 0.0
2014-Jul-20 21:33N 37°24' E 025°19'0 0.0
2014-Jul-20 20:33N 37°24' E 025°19'0 0.0
2014-Jul-20 19:33N 37°24' E 025°19'0 0.0
2014-Jul-20 18:33N 37°24' E 025°19'0 0.0
2014-Jul-20 17:33N 37°24' E 025°19'0 0.0
2014-Jul-20 16:27N 37°24' E 025°19'0 0.0
2014-Jul-20 15:33N 37°24' E 025°19'0 0.0
2014-Jul-20 14:33N 37°24' E 025°20'0 0.0
2014-Jul-20 13:33N 37°24' E 025°20'0 0.0
2014-Jul-20 12:33N 37°24' E 025°19'0 0.0
2014-Jul-20 11:33N 37°24' E 025°19'0 0.0
2014-Jul-20 10:27N 37°24' E 025°20'0 0.0
2014-Jul-20 09:33N 37°24' E 025°20'0 0.0
2014-Jul-20 08:33N 37°24' E 025°19'0 0.0
2014-Jul-20 07:27N 37°24' E 025°19'0 0.0
2014-Jul-20 06:27N 37°24' E 025°19'0 0.0
2014-Jul-20 05:32N 37°24' E 025°20'1 0.9
2014-Jul-20 04:33N 37°23' E 025°19'1312.7
2014-Jul-20 03:33N 37°18' E 025°05'1413.5
2014-Jul-20 02:31N 37°15' E 024°48'1313.7
2014-Jul-20 01:33N 37°14' E 024°31'1413.6
2014-Jul-20 00:30N 37°15' E 024°13'3013.4
2014-Jul-19 22:18N 37°13' E 023°36'1513.3
2014-Jul-19 21:08N 37°12' E 023°17'5 0.3
2014-Jul-19 03:09N 37°17' E 023°14'913.9
2014-Jul-19 02:28N 37°21' E 023°25'3 3.0
2014-Jul-19 01:32N 37°21' E 023°29'0 0.0
2014-Jul-19 00:30N 37°21' E 023°29'0 0.0
2014-Jul-18 23:33N 37°21' E 023°29'0 0.0
2014-Jul-18 22:15N 37°21' E 023°29'0 0.0
2014-Jul-18 21:33N 37°22' E 023°29'0 0.0
2014-Jul-18 20:27N 37°22' E 023°29'0 0.0
2014-Jul-18 19:21N 37°21' E 023°29'  
2014-Jul-15 10:13N 38°02' E 015°34'1013.9
2014-Jul-15 09:32N 38°12' E 015°35'9 9.2
2014-Jul-15 08:33N 38°20' E 015°30'1514.4
2014-Jul-15 07:32N 38°25' E 015°13'12714.1
2014-Jul-14 22:32N 40°26' E 014°24'9 2.8
2014-Jul-14 19:33N 40°35' E 014°21'0 0.0
2014-Jul-14 18:33N 40°35' E 014°21'4 3.9
2014-Jul-14 17:33N 40°37' E 014°17'10 4.8
2014-Jul-14 15:25N 40°43' E 014°28'0 0.0
2014-Jul-14 14:13N 40°43' E 014°28'0 0.0
2014-Jul-14 13:25N 40°43' E 014°28'0 0.0
2014-Jul-14 12:31N 40°43' E 014°28'0 0.0
2014-Jul-14 11:31N 40°43' E 014°28'0 0.0
2014-Jul-14 10:28N 40°43' E 014°28'0 0.0
2014-Jul-14 09:25N 40°43' E 014°28'0 0.0
2014-Jul-14 08:31N 40°43' E 014°28'0 0.0
2014-Jul-14 07:28N 40°43' E 014°28'0 0.0
2014-Jul-14 06:16N 40°43' E 014°28'3 4.7
2014-Jul-14 05:33N 40°41' E 014°24'7 7.0
2014-Jul-14 04:33N 40°34' E 014°24'5 0.7
2014-Jul-13 20:29N 40°37' E 014°30'5 0.6
2014-Jul-13 11:26N 40°34' E 014°24'  

Dump ship's entire track history